Hauptseite
METAR-TAF:

METAR-TAF

Flughäfen :

Köln, Deutschland

Flughafen Köln/Bonn

Breite: 50-52N, Länge: 007-10E, Höhe: 91 m

Beobachtung

Neuester Wetterbericht von vor 10 Minuten, um 23:50 UTC
Wind 4 kt aus Ost/Nordost
Temperatur 3°C
Luftfeuchtigkeit 93%
Luftdruck 1030 hPa
Sichtweite 10 km oder mehr
keine Wolken unter 1500 m und keine Kumulonimbus oder Gewitterwolken

METAR: EDDK 242350Z 06004KT CAVOK 03/02 Q1030 NOSIG

Zeit: 01:00 (00:00 UTC)

Prognose

Neuester Wetterbericht von vor 1 Stunde und 0 Minuten, um 23:00 UTC
Gültige Prognose vom 25 um 00 UTC bis 26 um 06 UTC
Wind 4 kt aus Ost
Sichtweite 10 km oder mehr
keine Wolken unter 1500 m und keine Kumulonimbus oder Gewitterwolken
Übergehend zu
vom 25 um 09 UTC bis 25 um 11 UTC
Wind 10 kt aus Nordost
Übergehend zu
vom 25 um 19 UTC bis 25 um 21 UTC
Wind 4 kt aus Nordost

TAF: EDDK 242300Z 2500/2606 08004KT CAVOK BECMG 2509/2511 04010KT BECMG 2519/2521 04004KT

Wetterbeobachtungen und Prognosen von mehr als 4000 Flughäfen (METAR und TAF Bericht).

Die verfügbaren Stationen werden durch gelbe und rote Markierungen auf der Karte dargestellt.

Führen Sie die Maus auf sie, um den Namen der Station zu sehen.

Darauf klicken, um die Beobachtung von Wetterbeobachtungen und Prognosen zu sehen.

Um die Karte zu ändern : klicken Sie auf den grünen Tasten mit einem schwarzen Kreuz Zum Vergrößern, auf den grünen Button mit einem Gedankenstrich zu verkleinern, oder auf die grünen Pfeile für benachbarte Karten.


METAR-TAF: